Time,TemperatureF,DewpointF,PressureIn,WindDirection,WindDirectionDegrees,WindSpeedMPH,WindSpeedGustMPH,Humidity,HourlyPrecipIn,Conditions,Clouds,dailyrainin,SoftwareType,DateUTC
2013-02-23 00:00:00,32.1,26.7,30.26,SSE,150,0.0,0.0,80,0.00,OVC,,0.00,WeatherDisplay:10.37,2013-02-23 05:00:00,
2013-02-23 00:01:00,32.3,26.9,30.26,SSE,150,0.0,0.0,80,0.00,OVC,,0.00,WeatherDisplay:10.37,2013-02-23 05:01:00,
2013-02-23 00:06:00,32.5,27.1,30.26,SSE,150,0.0,0.0,80,0.00,OVC,,0.00,WeatherDisplay:10.37,2013-02-23 05:06:00,
2013-02-23 00:09:00,32.2,26.8,30.26,SSE,155,4.6,4.6,80,0.00,OVC,,0.00,WeatherDisplay:10.37,2013-02-23 05:09:00,
2013-02-23 00:14:00,32.2,27.1,30.26,SE,137,4.2,4.2,81,0.00,OVC,,0.00,WeatherDisplay:10.37,2013-02-23 05:14:00,
2013-02-23 00:19:00,32.1,27.0,30.25,East,80,0.0,0.0,81,0.00,OVC,,0.00,WeatherDisplay:10.37,2013-02-23 05:19:00,
2013-02-23 00:24:00,32.2,27.1,30.25,East,80,0.0,0.0,81,0.00,OVC,,0.00,WeatherDisplay:10.37,2013-02-23 05:24:00,
2013-02-23 00:29:00,32.2,27.1,30.25,East,80,0.0,0.0,81,0.00,OVC,,0.00,WeatherDisplay:10.37,2013-02-23 05:29:00,
2013-02-23 00:33:00,32.0,26.9,30.25,ESE,109,5.8,5.8,81,0.00,OVC,,0.00,WeatherDisplay:10.37,2013-02-23 05:33:00,
2013-02-23 00:38:00,32.3,27.2,30.25,SE,130,0.0,0.0,81,0.00,OVC,,0.00,WeatherDisplay:10.37,2013-02-23 05:38:00,
2013-02-23 00:43:00,32.1,27.0,30.25,SE,141,0.0,0.0,81,0.00,OVC,,0.00,WeatherDisplay:10.37,2013-02-23 05:43:00,
2013-02-23 00:48:00,32.1,27.0,30.25,SE,133,4.6,4.6,81,0.00,OVC,,0.00,WeatherDisplay:10.37,2013-02-23 05:48:00,
2013-02-23 00:53:00,32.1,27.0,30.25,ESE,120,0.0,0.0,81,0.00,OVC,,0.00,WeatherDisplay:10.37,2013-02-23 05:53:00,
2013-02-23 00:58:00,32.2,27.1,30.25,SE,137,0.0,0.0,81,0.00,OVC,,0.00,WeatherDisplay:10.37,2013-02-23 05:58:00,
2013-02-23 01:03:00,32.1,27.0,30.25,SE,137,0.0,0.0,81,0.00,OVC,,0.00,WeatherDisplay:10.37,2013-02-23 06:03:00,
2013-02-23 01:09:00,32.0,26.9,30.25,SSE,155,3.5,3.5,81,0.00,OVC,,0.00,WeatherDisplay:10.37,2013-02-23 06:09:00,
2013-02-23 01:14:00,32.1,27.0,30.25,South,176,4.6,4.6,81,0.00,OVC,,0.00,WeatherDisplay:10.37,2013-02-23 06:14:00,
2013-02-23 01:19:00,32.2,27.1,30.25,South,176,0.0,0.0,81,0.00,OVC,,0.00,WeatherDisplay:10.37,2013-02-23 06:19:00,
2013-02-23 01:24:00,32.1,27.0,30.25,South,189,5.8,5.8,81,0.00,OVC,,0.00,WeatherDisplay:10.37,2013-02-23 06:24:00,
2013-02-23 01:30:00,32.1,27.0,30.25,SE,134,1.7,1.7,81,0.00,OVC,,0.00,WeatherDisplay:10.37,2013-02-23 06:30:00,
2013-02-23 01:35:00,32.1,27.0,30.25,SSE,150,0.0,0.0,81,0.00,OVC,,0.00,WeatherDisplay:10.37,2013-02-23 06:35:00,
2013-02-23 01:40:00,32.4,27.3,30.25,SSE,162,0.0,0.0,81,0.00,OVC,,0.00,WeatherDisplay:10.37,2013-02-23 06:40:00,
2013-02-23 01:45:00,32.3,27.2,30.25,SE,131,4.6,4.6,81,0.00,OVC,,0.00,WeatherDisplay:10.37,2013-02-23 06:45:00,
2013-02-23 01:50:00,32.4,27.3,30.25,SE,133,0.0,0.0,81,0.00,OVC,,0.00,WeatherDisplay:10.37,2013-02-23 06:50:00,
2013-02-23 01:55:00,32.1,27.0,30.25,SE,133,0.0,0.0,81,0.00,OVC,,0.00,WeatherDisplay:10.37,2013-02-23 06:55:00,
2013-02-23 02:00:00,32.3,27.2,30.25,SE,127,0.0,0.0,81,0.00,OVC,,0.00,WeatherDisplay:10.37,2013-02-23 07:00:00,
2013-02-23 02:05:00,32.3,27.2,30.25,SE,131,0.0,0.0,81,0.00,OVC,,0.00,WeatherDisplay:10.37,2013-02-23 07:05:00,
2013-02-23 02:10:00,32.1,27.0,30.25,SE,131,0.0,0.0,81,0.00,OVC,,0.00,WeatherDisplay:10.37,2013-02-23 07:10:00,
2013-02-23 02:15:00,32.1,27.0,30.25,SE,143,2.3,2.3,81,0.00,OVC,,0.00,WeatherDisplay:10.37,2013-02-23 07:15:00,
2013-02-23 02:20:00,32.3,27.2,30.24,SE,131,0.0,0.0,81,0.00,OVC,,0.00,WeatherDisplay:10.37,2013-02-23 07:20:00,
2013-02-23 02:25:00,32.3,27.2,30.24,SE,131,0.0,0.0,81,0.00,OVC,,0.00,WeatherDisplay:10.37,2013-02-23 07:25:00,
2013-02-23 02:30:00,32.2,27.1,30.23,SE,131,0.0,0.0,81,0.00,OVC,,0.00,WeatherDisplay:10.37,2013-02-23 07:30:00,
2013-02-23 02:35:00,32.2,27.1,30.23,SSE,165,0.0,0.0,81,0.00,OVC,,0.00,WeatherDisplay:10.37,2013-02-23 07:35:00,
2013-02-23 02:40:00,32.3,27.5,30.23,ESE,114,4.6,4.6,82,0.00,OVC,,0.00,WeatherDisplay:10.37,2013-02-23 07:40:00,
2013-02-23 02:45:00,32.1,27.3,30.22,ESE,120,0.0,1.5,82,0.00,OVC,,0.00,WeatherDisplay:10.37,2013-02-23 07:45:00,
2013-02-23 02:50:00,32.1,27.3,30.22,SE,138,3.5,3.5,82,0.00,OVC,,0.00,WeatherDisplay:10.37,2013-02-23 07:50:00,
2013-02-23 02:55:00,32.1,27.3,30.22,ESE,123,0.0,0.0,82,0.00,OVC,,0.00,WeatherDisplay:10.37,2013-02-23 07:55:00,
2013-02-23 03:00:00,32.0,27.2,30.22,ESE,114,3.0,3.0,82,0.00,OVC,,0.00,WeatherDisplay:10.37,2013-02-23 08:00:00,
2013-02-23 03:05:00,32.0,27.2,30.22,SE,140,5.8,5.8,82,0.00,OVC,,0.00,WeatherDisplay:10.37,2013-02-23 08:05:00,
2013-02-23 03:10:00,32.1,27.3,30.21,SSE,151,3.5,3.5,82,0.00,OVC,,0.00,WeatherDisplay:10.37,2013-02-23 08:10:00,
2013-02-23 03:15:00,32.2,27.4,30.21,SSE,148,4.6,4.6,82,0.00,OVC,,0.00,WeatherDisplay:10.37,2013-02-23 08:15:00,
2013-02-23 03:20:00,32.1,27.3,30.21,SSE,151,0.0,0.0,82,0.00,OVC,,0.00,WeatherDisplay:10.37,2013-02-23 08:20:00,
2013-02-23 03:25:00,32.1,27.3,30.21,SSE,151,0.0,0.0,82,0.00,OVC,,0.00,WeatherDisplay:10.37,2013-02-23 08:25:00,
2013-02-23 03:30:00,32.3,27.5,30.21,SSE,151,0.0,0.0,82,0.00,OVC,,0.00,WeatherDisplay:10.37,2013-02-23 08:30:00,
2013-02-23 03:35:00,32.3,27.5,30.21,SSE,151,0.0,0.0,82,0.00,OVC,,0.00,WeatherDisplay:10.37,2013-02-23 08:35:00,
2013-02-23 03:40:00,32.3,27.5,30.20,SE,144,1.1,0.0,82,0.00,OVC,,0.00,WeatherDisplay:10.37,2013-02-23 08:40:00,
2013-02-23 03:45:00,32.2,27.7,30.20,SSE,148,0.0,0.5,83,0.00,OVC,,0.00,WeatherDisplay:10.37,2013-02-23 08:45:00,
2013-02-23 03:50:00,32.1,27.6,30.20,SE,138,6.9,6.9,83,0.00,OVC,,0.00,WeatherDisplay:10.37,2013-02-23 08:50:00,
2013-02-23 03:55:00,32.2,27.4,30.20,South,175,5.8,5.8,82,0.00,OVC,,0.00,WeatherDisplay:10.37,2013-02-23 08:55:00,
2013-02-23 04:00:00,32.3,27.8,30.21,SSW,195,2.9,2.9,83,0.00,OVC,,0.00,WeatherDisplay:10.37,2013-02-23 09:00:00,
2013-02-23 04:05:00,32.3,27.8,30.21,SSE,168,6.9,6.9,83,0.00,OVC,,0.00,WeatherDisplay:10.37,2013-02-23 09:05:00,
2013-02-23 04:10:00,32.4,27.9,30.21,South,176,5.8,5.8,83,0.00,OVC,,0.00,WeatherDisplay:10.37,2013-02-23 09:10:00,
2013-02-23 04:15:00,32.4,27.9,30.20,SE,143,4.6,4.6,83,0.00,OVC,,0.00,WeatherDisplay:10.37,2013-02-23 09:15:00,
2013-02-23 04:20:00,32.3,27.8,30.20,SSE,162,5.0,5.0,83,0.00,OVC,,0.00,WeatherDisplay:10.37,2013-02-23 09:20:00,
2013-02-23 04:25:00,32.5,28.0,30.20,SSE,151,3.5,3.5,83,0.00,OVC,,0.00,WeatherDisplay:10.37,2013-02-23 09:25:00,
2013-02-23 04:30:00,32.5,28.0,30.20,SSE,150,6.9,6.9,83,0.00,OVC,,0.00,WeatherDisplay:10.37,2013-02-23 09:30:00,
2013-02-23 04:35:00,32.4,27.9,30.20,East,83,5.8,0.0,83,0.00,OVC,,0.00,WeatherDisplay:10.37,2013-02-23 09:35:00,
2013-02-23 04:40:00,32.6,28.0,30.20,SE,143,6.9,6.9,83,0.00,OVC,,0.00,WeatherDisplay:10.37,2013-02-23 09:40:00,
2013-02-23 04:45:00,32.5,28.0,30.20,SSE,160,3.9,3.9,83,0.00,OVC,,0.00,WeatherDisplay:10.37,2013-02-23 09:45:00,
2013-02-23 04:50:00,32.5,28.0,30.19,ESE,123,4.6,4.6,83,0.00,OVC,,0.00,WeatherDisplay:10.37,2013-02-23 09:50:00,
2013-02-23 04:55:00,32.4,27.9,30.19,SSE,160,4.6,4.6,83,0.00,OVC,,0.00,WeatherDisplay:10.37,2013-02-23 09:55:00,
2013-02-23 05:00:00,32.6,28.0,30.20,SSE,160,0.0,0.0,83,0.00,OVC,,0.00,WeatherDisplay:10.37,2013-02-23 10:00:00,
2013-02-23 05:05:00,32.6,28.3,30.19,SSE,160,0.0,0.0,84,0.00,OVC,,0.00,WeatherDisplay:10.37,2013-02-23 10:05:00,
2013-02-23 05:10:00,32.6,28.3,30.19,SE,143,4.6,4.6,84,0.00,OVC,,0.00,WeatherDisplay:10.37,2013-02-23 10:10:00,
2013-02-23 05:15:00,32.7,28.4,30.19,SSE,155,0.0,0.0,84,0.00,OVC,,0.00,WeatherDisplay:10.37,2013-02-23 10:15:00,
2013-02-23 05:20:00,32.6,28.3,30.19,ESE,113,2.3,2.3,84,0.00,OVC,,0.00,WeatherDisplay:10.37,2013-02-23 10:20:00,
2013-02-23 05:25:00,32.5,28.2,30.19,SE,126,5.8,5.8,84,0.00,OVC,,0.00,WeatherDisplay:10.37,2013-02-23 10:25:00,
2013-02-23 05:30:00,32.6,28.3,30.19,SE,126,0.0,0.0,84,0.00,OVC,,0.00,WeatherDisplay:10.37,2013-02-23 10:30:00,
2013-02-23 05:35:00,32.4,28.1,30.19,SE,126,0.0,0.0,84,0.00,OVC,,0.00,WeatherDisplay:10.37,2013-02-23 10:35:00,
2013-02-23 05:40:00,32.6,28.0,30.19,SSE,164,2.3,2.3,83,0.00,OVC,,0.00,WeatherDisplay:10.37,2013-02-23 10:40:00,
2013-02-23 05:45:00,32.7,28.1,30.19,SSE,167,3.5,3.5,83,0.00,OVC,,0.00,WeatherDisplay:10.37,2013-02-23 10:45:00,
2013-02-23 05:50:00,32.8,28.2,30.19,ENE,75,2.3,0.0,83,0.00,OVC,,0.00,WeatherDisplay:10.37,2013-02-23 10:50:00,
2013-02-23 05:55:00,32.7,28.4,30.19,ENE,75,0.0,0.0,84,0.00,OVC,,0.00,WeatherDisplay:10.37,2013-02-23 10:55:00,
2013-02-23 06:00:00,32.7,28.4,30.19,ENE,75,0.0,0.0,84,0.00,OVC,,0.00,WeatherDisplay:10.37,2013-02-23 11:00:00,
2013-02-23 06:05:00,32.6,28.3,30.19,ENE,75,0.0,0.0,84,0.00,OVC,,0.00,WeatherDisplay:10.37,2013-02-23 11:05:00,
2013-02-23 06:10:00,32.7,28.4,30.19,ENE,75,0.0,0.0,84,0.00,OVC,,0.00,WeatherDisplay:10.37,2013-02-23 11:10:00,
2013-02-23 06:15:00,32.6,28.3,30.19,ENE,75,0.0,0.0,84,0.00,OVC,,0.00,WeatherDisplay:10.37,2013-02-23 11:15:00,
2013-02-23 06:20:00,32.7,28.4,30.19,ENE,75,0.0,0.0,84,0.00,OVC,,0.00,WeatherDisplay:10.37,2013-02-23 11:20:00,
2013-02-23 06:25:00,32.6,28.6,30.19,SSE,161,4.6,4.6,85,0.00,OVC,,0.00,WeatherDisplay:10.37,2013-02-23 11:25:00,
2013-02-23 06:30:00,32.7,29.0,30.18,ESE,112,3.5,3.5,86,0.00,OVC,,0.00,WeatherDisplay:10.37,2013-02-23 11:30:00,
2013-02-23 06:35:00,32.4,29.0,30.18,SE,143,3.5,3.5,87,0.00,OVC,,0.00,WeatherDisplay:10.37,2013-02-23 11:35:00,
2013-02-23 06:40:00,32.3,28.9,30.18,SE,143,0.0,0.0,87,0.00,OVC,,0.00,WeatherDisplay:10.37,2013-02-23 11:40:00,
2013-02-23 06:45:00,32.4,29.0,30.18,SE,143,0.0,0.0,87,0.00,OVC,,0.00,WeatherDisplay:10.37,2013-02-23 11:45:00,
2013-02-23 06:50:00,32.2,29.1,30.17,SE,140,0.0,0.0,88,0.00,OVC,,0.00,WeatherDisplay:10.37,2013-02-23 11:50:00,
2013-02-23 06:55:00,32.3,29.2,30.17,SE,140,0.0,0.0,88,0.00,OVC,,0.00,WeatherDisplay:10.37,2013-02-23 11:55:00,
2013-02-23 07:00:00,32.1,28.7,30.17,SE,124,4.6,4.6,87,0.00,OVC,,0.00,WeatherDisplay:10.37,2013-02-23 12:00:00,
2013-02-23 07:05:00,32.5,29.1,30.17,SE,140,4.6,4.6,87,0.00,OVC,,0.00,WeatherDisplay:10.37,2013-02-23 12:05:00,
2013-02-23 07:10:00,32.4,29.3,30.18,SE,144,4.6,4.6,88,0.00,OVC,,0.00,WeatherDisplay:10.37,2013-02-23 12:10:00,
2013-02-23 07:15:00,32.7,29.6,30.17,SE,136,0.0,0.0,88,0.00,OVC,,0.00,WeatherDisplay:10.37,2013-02-23 12:15:00,
2013-02-23 07:20:00,32.7,29.6,30.17,SSE,165,6.3,6.3,88,0.00,OVC,,0.00,WeatherDisplay:10.37,2013-02-23 12:20:00,
2013-02-23 07:25:00,32.6,29.8,30.17,ESE,119,5.8,5.8,89,0.00,OVC,,0.00,WeatherDisplay:10.37,2013-02-23 12:25:00,
2013-02-23 07:30:00,32.7,30.1,30.17,ESE,112,0.0,0.0,90,0.00,OVC,,0.00,WeatherDisplay:10.37,2013-02-23 12:30:00,
2013-02-23 07:35:00,32.6,30.3,30.17,ESE,116,2.3,2.3,91,0.00,OVC,,0.00,WeatherDisplay:10.37,2013-02-23 12:35:00,
2013-02-23 07:40:00,32.7,30.7,30.16,SE,124,4.8,4.8,92,0.00,OVC,,0.00,WeatherDisplay:10.37,2013-02-23 12:40:00,
2013-02-23 07:45:00,32.6,30.6,30.16,SE,145,0.0,0.0,92,0.00,OVC,,0.00,WeatherDisplay:10.37,2013-02-23 12:45:00,
2013-02-23 07:50:00,32.6,30.8,30.16,SE,141,6.9,6.9,93,0.00,OVC,,0.00,WeatherDisplay:10.37,2013-02-23 12:50:00,
2013-02-23 07:55:00,32.7,31.2,30.16,SE,140,4.6,4.6,94,0.00,OVC,,0.00,WeatherDisplay:10.37,2013-02-23 12:55:00,
2013-02-23 08:00:00,32.6,31.1,30.16,SE,137,0.0,0.0,94,0.00,OVC,,0.00,WeatherDisplay:10.37,2013-02-23 13:00:00,
2013-02-23 08:05:00,32.7,31.2,30.16,SSW,210,5.8,5.8,94,0.00,OVC,,0.00,WeatherDisplay:10.37,2013-02-23 13:05:00,
2013-02-23 08:11:00,32.9,31.4,30.15,SSE,157,4.6,4.6,94,0.00,OVC,,0.00,WeatherDisplay:10.37,2013-02-23 13:11:00,
2013-02-23 08:16:00,32.9,31.7,30.15,SE,127,0.0,0.0,95,0.00,OVC,,0.00,WeatherDisplay:10.37,2013-02-23 13:16:00,
2013-02-23 08:21:00,33.0,31.8,30.14,SE,127,0.0,0.0,95,0.00,OVC,,0.00,WeatherDisplay:10.37,2013-02-23 13:21:00,
2013-02-23 08:26:00,32.9,31.7,30.14,SE,141,4.6,4.6,95,0.00,OVC,,0.00,WeatherDisplay:10.37,2013-02-23 13:26:00,
2013-02-23 08:31:00,32.9,31.7,30.14,ESE,119,0.0,0.0,95,0.00,OVC,,0.00,WeatherDisplay:10.37,2013-02-23 13:31:00,
2013-02-23 08:36:00,33.0,32.0,30.14,SE,137,3.5,3.5,96,0.00,OVC,,0.00,WeatherDisplay:10.37,2013-02-23 13:36:00,
2013-02-23 08:41:00,33.1,32.1,30.14,SE,137,3.5,3.5,96,0.00,OVC,,0.00,WeatherDisplay:10.37,2013-02-23 13:41:00,
2013-02-23 08:46:00,33.1,32.1,30.13,SE,145,4.6,4.6,96,0.00,OVC,,0.00,WeatherDisplay:10.37,2013-02-23 13:46:00,
2013-02-23 08:51:00,33.2,32.2,30.13,SE,134,6.9,6.9,96,0.00,OVC,,0.00,WeatherDisplay:10.37,2013-02-23 13:51:00,
2013-02-23 08:56:00,33.3,32.3,30.13,SSE,150,4.6,4.6,96,0.00,OVC,,0.00,WeatherDisplay:10.37,2013-02-23 13:56:00,
2013-02-23 09:01:00,33.4,32.7,30.12,ESE,106,5.8,5.8,97,0.00,OVC,,0.00,WeatherDisplay:10.37,2013-02-23 14:01:00,
2013-02-23 09:06:00,33.5,32.8,30.12,ESE,113,8.1,8.1,97,0.00,OVC,,0.00,WeatherDisplay:10.37,2013-02-23 14:06:00,
2013-02-23 09:11:00,33.6,32.9,30.12,SSE,151,5.8,5.8,97,0.00,OVC,,0.00,WeatherDisplay:10.37,2013-02-23 14:11:00,
2013-02-23 09:16:00,33.5,33.0,30.12,East,83,3.5,3.5,98,0.00,OVC,,0.00,WeatherDisplay:10.37,2013-02-23 14:16:00,
2013-02-23 09:21:00,33.7,33.2,30.12,SSE,154,4.6,4.6,98,0.00,OVC,,0.00,WeatherDisplay:10.37,2013-02-23 14:21:00,
2013-02-23 09:26:00,33.7,33.2,30.12,SSE,151,5.8,0.0,98,0.00,OVC,,0.00,WeatherDisplay:10.37,2013-02-23 14:26:00,
2013-02-23 09:31:00,33.7,33.2,30.12,SE,128,3.5,3.5,98,0.00,OVC,,0.00,WeatherDisplay:10.37,2013-02-23 14:31:00,
2013-02-23 09:36:00,33.7,33.2,30.12,South,169,0.0,0.0,98,0.00,OVC,,0.00,WeatherDisplay:10.37,2013-02-23 14:36:00,
2013-02-23 09:41:00,33.9,33.4,30.12,SSE,157,5.8,5.8,98,0.00,OVC,,0.00,WeatherDisplay:10.37,2013-02-23 14:41:00,
2013-02-23 09:46:00,33.9,33.4,30.12,East,88,0.0,0.0,98,0.00,OVC,,0.00,WeatherDisplay:10.37,2013-02-23 14:46:00,
2013-02-23 09:51:00,34.1,33.6,30.12,SE,127,0.0,0.0,98,0.00,OVC,,0.00,WeatherDisplay:10.37,2013-02-23 14:51:00,
2013-02-23 09:56:00,34.1,33.6,30.11,South,169,4.6,4.6,98,0.00,OVC,,0.00,WeatherDisplay:10.37,2013-02-23 14:56:00,
2013-02-23 10:01:00,34.1,33.6,30.11,ESE,117,4.6,4.6,98,0.00,OVC,,0.00,WeatherDisplay:10.37,2013-02-23 15:01:00,
2013-02-23 10:06:00,34.2,33.7,30.11,SE,145,0.0,2.4,98,0.00,OVC,,0.00,WeatherDisplay:10.37,2013-02-23 15:06:00,
2013-02-23 10:11:00,34.1,33.6,30.11,East,97,0.0,0.0,98,0.00,OVC,,0.00,WeatherDisplay:10.37,2013-02-23 15:11:00,
2013-02-23 10:16:00,34.2,33.7,30.10,East,97,0.0,0.0,98,0.00,OVC,,0.00,WeatherDisplay:10.37,2013-02-23 15:16:00,
2013-02-23 10:21:00,34.3,33.8,30.09,SSE,161,0.0,0.2,98,0.00,OVC,,0.00,WeatherDisplay:10.37,2013-02-23 15:21:00,
2013-02-23 10:26:00,34.2,33.7,30.10,SE,143,0.0,0.3,98,0.00,OVC,,0.00,WeatherDisplay:10.37,2013-02-23 15:26:00,
2013-02-23 10:32:00,34.4,33.9,30.09,ENE,69,5.8,5.8,98,0.00,OVC,,0.00,WeatherDisplay:10.37,2013-02-23 15:32:00,
2013-02-23 10:37:00,34.5,34.0,30.09,SE,131,3.5,3.5,98,0.00,OVC,,0.00,WeatherDisplay:10.37,2013-02-23 15:37:00,
2013-02-23 10:42:00,34.6,34.4,30.08,ENE,73,8.1,8.1,99,0.00,OVC,,0.00,WeatherDisplay:10.37,2013-02-23 15:42:00,
2013-02-23 10:47:00,34.4,34.2,30.08,SSE,147,3.8,3.8,99,0.00,OVC,,0.00,WeatherDisplay:10.37,2013-02-23 15:47:00,
2013-02-23 10:52:00,34.6,34.4,30.08,ESE,106,5.8,5.8,99,0.00,OVC,,0.00,WeatherDisplay:10.37,2013-02-23 15:52:00,
2013-02-23 10:57:00,34.6,34.4,30.07,SE,136,5.8,5.8,99,0.00,OVC,,0.00,WeatherDisplay:10.37,2013-02-23 15:57:00,
2013-02-23 11:02:00,34.8,34.6,30.08,SSE,150,8.1,8.1,99,0.00,OVC,,0.00,WeatherDisplay:10.37,2013-02-23 16:02:00,
2013-02-23 11:07:00,35.0,34.8,30.07,ESE,121,3.5,0.0,99,0.00,OVC,,0.00,WeatherDisplay:10.37,2013-02-23 16:07:00,
2013-02-23 11:12:00,35.1,34.9,30.07,ESE,113,5.8,5.8,99,0.00,OVC,,0.00,WeatherDisplay:10.37,2013-02-23 16:12:00,
2013-02-23 11:18:00,35.3,35.1,30.07,SE,143,5.8,5.8,99,0.00,OVC,,0.00,WeatherDisplay:10.37,2013-02-23 16:18:00,
2013-02-23 11:23:00,35.4,35.2,30.07,SE,130,1.1,0.0,99,0.00,OVC,,0.00,WeatherDisplay:10.37,2013-02-23 16:23:00,
2013-02-23 11:28:00,35.3,35.1,30.07,SE,130,0.0,0.0,99,0.00,OVC,,0.00,WeatherDisplay:10.37,2013-02-23 16:28:00,
2013-02-23 11:33:00,35.2,35.0,30.07,SE,124,6.9,6.9,99,0.00,OVC,,0.00,WeatherDisplay:10.37,2013-02-23 16:33:00,
2013-02-23 11:38:00,35.3,35.1,30.06,SE,124,8.1,8.1,99,0.00,OVC,,0.00,WeatherDisplay:10.37,2013-02-23 16:38:00,
2013-02-23 11:43:00,35.2,35.0,30.06,SSE,147,3.5,3.5,99,0.00,OVC,,0.00,WeatherDisplay:10.37,2013-02-23 16:43:00,
2013-02-23 11:48:00,35.3,35.1,30.05,East,99,6.9,6.9,99,0.00,OVC,,0.00,WeatherDisplay:10.37,2013-02-23 16:48:00,
2013-02-23 11:53:00,35.4,35.2,30.05,ESE,114,5.8,5.8,99,0.00,OVC,,0.00,WeatherDisplay:10.37,2013-02-23 16:53:00,
2013-02-23 11:58:00,35.6,35.4,30.05,SE,127,5.8,5.8,99,0.00,OVC,,0.00,WeatherDisplay:10.37,2013-02-23 16:58:00,
2013-02-23 12:03:00,35.5,35.3,30.05,SE,138,5.8,5.8,99,0.00,OVC,,0.00,WeatherDisplay:10.37,2013-02-23 17:03:00,
2013-02-23 12:08:00,35.6,35.6,30.05,SSE,152,1.1,0.0,100,0.00,OVC,,0.00,WeatherDisplay:10.37,2013-02-23 17:08:00,
2013-02-23 12:13:00,35.5,35.5,30.05,SSE,148,8.1,8.1,100,0.00,OVC,,0.00,WeatherDisplay:10.37,2013-02-23 17:13:00,
2013-02-23 12:18:00,35.6,35.6,30.04,ESE,123,5.8,5.8,100,0.00,OVC,,0.00,WeatherDisplay:10.37,2013-02-23 17:18:00,
2013-02-23 12:23:00,35.6,35.6,30.03,SSE,154,5.8,5.8,100,0.01,RA,,0.01,WeatherDisplay:10.37,2013-02-23 17:23:00,
2013-02-23 12:28:00,35.6,35.6,30.03,SSE,154,5.5,5.5,100,0.01,RA,,0.01,WeatherDisplay:10.37,2013-02-23 17:28:00,
2013-02-23 12:33:00,35.7,35.7,30.03,SSE,162,1.1,1.1,100,0.01,OVC,,0.01,WeatherDisplay:10.37,2013-02-23 17:33:00,
2013-02-23 12:38:00,35.7,35.7,30.03,East,97,5.8,5.8,100,0.01,OVC,,0.01,WeatherDisplay:10.37,2013-02-23 17:38:00,
2013-02-23 12:43:00,35.8,35.8,30.03,SE,124,5.8,5.8,100,0.01,OVC,,0.01,WeatherDisplay:10.37,2013-02-23 17:43:00,
2013-02-23 12:48:00,35.9,35.9,30.03,SE,136,5.8,5.8,100,0.01,-RA,,0.01,WeatherDisplay:10.37,2013-02-23 17:48:00,
2013-02-23 12:53:00,35.9,35.9,30.03,SSE,160,5.7,5.7,100,0.01,-RA,,0.01,WeatherDisplay:10.37,2013-02-23 17:53:00,
2013-02-23 12:58:00,36.0,36.0,30.02,SE,143,4.6,4.6,100,0.02,-RA,,0.02,WeatherDisplay:10.37,2013-02-23 17:58:00,
2013-02-23 13:03:00,36.0,36.0,30.02,ESE,102,4.6,4.6,100,0.02,-RA,,0.02,WeatherDisplay:10.37,2013-02-23 18:03:00,
2013-02-23 13:08:00,36.0,36.0,30.02,East,99,0.0,0.0,100,0.02,-RA,,0.02,WeatherDisplay:10.37,2013-02-23 18:08:00,
2013-02-23 13:13:00,36.0,36.0,30.02,ESE,112,5.8,5.8,100,0.02,-RA,,0.02,WeatherDisplay:10.37,2013-02-23 18:13:00,
2013-02-23 13:18:00,36.2,36.2,30.02,SE,143,0.0,0.0,100,0.02,-RA,,0.02,WeatherDisplay:10.37,2013-02-23 18:18:00,
2013-02-23 13:23:00,36.2,36.2,30.02,East,93,8.1,8.1,100,0.01,-RA,,0.02,WeatherDisplay:10.37,2013-02-23 18:23:00,
2013-02-23 13:28:00,36.2,36.2,30.02,ESE,123,4.3,4.3,100,0.01,-RA,,0.02,WeatherDisplay:10.37,2013-02-23 18:28:00,
2013-02-23 13:33:00,36.1,36.1,30.02,ESE,113,3.5,0.0,100,0.01,-RA,,0.02,WeatherDisplay:10.37,2013-02-23 18:33:00,
2013-02-23 13:38:00,36.4,36.4,30.01,SE,143,3.5,0.0,100,0.01,-RA,,0.02,WeatherDisplay:10.37,2013-02-23 18:38:00,
2013-02-23 13:43:00,36.3,36.3,30.01,ESE,104,4.6,0.0,100,0.02,-RA,,0.03,WeatherDisplay:10.37,2013-02-23 18:43:00,
2013-02-23 13:48:00,36.4,36.4,30.01,ESE,104,0.0,0.0,100,0.02,-RA,,0.03,WeatherDisplay:10.37,2013-02-23 18:48:00,
2013-02-23 13:53:00,36.4,36.4,30.01,ESE,102,3.5,3.5,100,0.02,-RA,,0.03,WeatherDisplay:10.37,2013-02-23 18:53:00,
2013-02-23 13:58:00,36.6,36.6,30.01,ESE,121,0.0,0.0,100,0.01,-RA,,0.03,WeatherDisplay:10.37,2013-02-23 18:58:00,
2013-02-23 14:03:00,36.7,36.7,30.01,ESE,121,0.0,0.0,100,0.01,-RA,,0.03,WeatherDisplay:10.37,2013-02-23 19:03:00,
2013-02-23 14:08:00,36.7,36.7,30.00,East,83,0.0,0.0,100,0.01,-RA,,0.03,WeatherDisplay:10.37,2013-02-23 19:08:00,
2013-02-23 14:13:00,36.6,36.6,30.00,SE,133,6.9,6.9,100,0.01,-RA,,0.03,WeatherDisplay:10.37,2013-02-23 19:13:00,
2013-02-23 14:18:00,36.7,36.7,30.00,SE,130,8.1,8.1,100,0.02,-RA,,0.04,WeatherDisplay:10.37,2013-02-23 19:18:00,
2013-02-23 14:23:00,36.8,36.8,30.00,SE,134,8.1,8.1,100,0.02,-RA,,0.04,WeatherDisplay:10.37,2013-02-23 19:23:00,
2013-02-23 14:28:00,36.8,36.8,29.99,ESE,103,8.1,8.1,100,0.02,-RA,,0.04,WeatherDisplay:10.37,2013-02-23 19:28:00,
2013-02-23 14:33:00,36.6,36.6,29.99,ESE,121,6.9,6.9,100,0.02,-RA,,0.04,WeatherDisplay:10.37,2013-02-23 19:33:00,
2013-02-23 14:38:00,36.6,36.6,29.99,SE,130,5.8,5.8,100,0.02,-RA,,0.04,WeatherDisplay:10.37,2013-02-23 19:38:00,
2013-02-23 14:43:00,36.8,36.8,29.99,SSE,150,5.8,5.8,100,0.01,-RA,,0.04,WeatherDisplay:10.37,2013-02-23 19:43:00,
2013-02-23 14:48:00,36.6,36.6,29.99,SE,140,4.6,4.6,100,0.01,-RA,,0.04,WeatherDisplay:10.37,2013-02-23 19:48:00,
2013-02-23 14:53:00,36.6,36.6,29.99,ESE,113,4.6,4.6,100,0.02,-RA,,0.05,WeatherDisplay:10.37,2013-02-23 19:53:00,
2013-02-23 14:58:00,36.4,36.4,29.99,SE,144,6.9,6.9,100,0.02,-RA,,0.05,WeatherDisplay:10.37,2013-02-23 19:58:00,
2013-02-23 15:03:00,36.6,36.6,29.99,ESE,116,6.9,6.9,100,0.02,OVC,,0.05,WeatherDisplay:10.37,2013-02-23 20:03:00,
2013-02-23 15:08:00,36.4,36.4,29.99,East,86,5.8,5.8,100,0.02,OVC,,0.05,WeatherDisplay:10.37,2013-02-23 20:08:00,
2013-02-23 15:13:00,36.2,36.2,29.98,SE,127,6.9,6.9,100,0.02,OVC,,0.05,WeatherDisplay:10.37,2013-02-23 20:13:00,
2013-02-23 15:18:00,36.2,36.2,29.98,SE,131,9.2,9.2,100,0.01,-RA,,0.05,WeatherDisplay:10.37,2013-02-23 20:18:00,
2013-02-23 15:23:00,36.1,36.1,29.98,SSE,154,0.0,2.4,100,0.01,-RA,,0.05,WeatherDisplay:10.37,2013-02-23 20:23:00,
2013-02-23 15:28:00,36.2,36.2,29.99,ESE,119,6.9,6.9,100,0.02,-RA,,0.06,WeatherDisplay:10.37,2013-02-23 20:28:00,
2013-02-23 15:33:00,36.1,36.1,29.98,ESE,120,6.9,6.9,100,0.02,-RA,,0.06,WeatherDisplay:10.37,2013-02-23 20:33:00,
2013-02-23 15:38:00,36.1,36.1,29.98,ESE,104,4.1,4.1,100,0.02,-RA,,0.06,WeatherDisplay:10.37,2013-02-23 20:38:00,
2013-02-23 15:43:00,36.1,36.1,29.98,ESE,119,6.9,6.9,100,0.02,-RA,,0.06,WeatherDisplay:10.37,2013-02-23 20:43:00,
2013-02-23 15:48:00,36.0,36.0,29.99,SE,136,5.8,5.8,100,0.02,-RA,,0.06,WeatherDisplay:10.37,2013-02-23 20:48:00,
2013-02-23 15:53:00,36.1,36.1,29.98,ESE,106,6.9,6.9,100,0.01,-RA,,0.06,WeatherDisplay:10.37,2013-02-23 20:53:00,
2013-02-23 15:58:00,35.9,35.9,29.98,SE,124,9.2,9.2,100,0.01,-RA,,0.06,WeatherDisplay:10.37,2013-02-23 20:58:00,
2013-02-23 16:03:00,35.7,35.7,29.98,ESE,113,5.8,5.8,100,0.02,RA,,0.07,WeatherDisplay:10.37,2013-02-23 21:03:00,
2013-02-23 16:08:00,35.7,35.7,29.99,ESE,113,6.5,6.5,100,0.02,RA,,0.07,WeatherDisplay:10.37,2013-02-23 21:08:00,
2013-02-23 16:13:00,35.7,35.7,29.99,East,95,5.8,5.8,100,0.02,OVC,,0.07,WeatherDisplay:10.37,2013-02-23 21:13:00,
2013-02-23 16:18:00,35.5,35.5,29.98,ESE,123,6.9,6.9,100,0.02,-RA,,0.07,WeatherDisplay:10.37,2013-02-23 21:18:00,
2013-02-23 16:23:00,35.6,35.6,29.98,ESE,112,6.9,6.9,100,0.02,-RA,,0.07,WeatherDisplay:10.37,2013-02-23 21:23:00,
2013-02-23 16:28:00,35.3,35.3,29.98,ESE,117,5.8,5.8,100,0.02,-RA,,0.08,WeatherDisplay:10.37,2013-02-23 21:28:00,
2013-02-23 16:33:00,35.5,35.5,29.98,East,97,7.1,7.1,100,0.02,-RA,,0.08,WeatherDisplay:10.37,2013-02-23 21:33:00,
2013-02-23 16:38:00,35.6,35.6,29.98,East,99,7.4,7.4,100,0.03,-RA,,0.09,WeatherDisplay:10.37,2013-02-23 21:38:00,
2013-02-23 16:43:00,35.5,35.5,29.97,ESE,117,5.8,5.8,100,0.03,-RA,,0.09,WeatherDisplay:10.37,2013-02-23 21:43:00,
2013-02-23 16:48:00,35.4,35.4,29.98,ESE,117,0.0,0.0,100,0.03,OVC,,0.09,WeatherDisplay:10.37,2013-02-23 21:48:00,
2013-02-23 16:53:00,35.4,35.4,29.97,ESE,102,0.0,0.0,100,0.04,RA,,0.10,WeatherDisplay:10.37,2013-02-23 21:53:00,
2013-02-23 16:58:00,35.4,35.4,29.97,SSE,152,2.3,2.3,100,0.04,RA,,0.10,WeatherDisplay:10.37,2013-02-23 21:58:00,
2013-02-23 17:03:00,35.4,35.4,29.96,SE,127,0.0,0.0,100,0.03,OVC,,0.10,WeatherDisplay:10.37,2013-02-23 22:03:00,
2013-02-23 17:08:00,35.2,35.2,29.96,SE,141,5.8,5.8,100,0.04,RA,,0.11,WeatherDisplay:10.37,2013-02-23 22:08:00,
2013-02-23 17:13:00,35.3,35.3,29.95,SE,143,5.8,5.8,100,0.04,RA,,0.11,WeatherDisplay:10.37,2013-02-23 22:13:00,
2013-02-23 17:18:00,35.3,35.3,29.96,ESE,104,6.9,6.9,100,0.04,OVC,,0.11,WeatherDisplay:10.37,2013-02-23 22:18:00,
2013-02-23 17:23:00,35.1,35.1,29.96,East,80,0.0,0.0,100,0.05,RA,,0.12,WeatherDisplay:10.37,2013-02-23 22:23:00,
2013-02-23 17:28:00,35.3,35.3,29.96,SE,124,6.9,6.9,100,0.04,RA,,0.12,WeatherDisplay:10.37,2013-02-23 22:28:00,
2013-02-23 17:33:00,35.2,35.2,29.95,SE,127,5.8,5.8,100,0.04,OVC,,0.12,WeatherDisplay:10.37,2013-02-23 22:33:00,
2013-02-23 17:38:00,34.9,34.9,29.96,ESE,114,6.9,6.9,100,0.03,OVC,,0.12,WeatherDisplay:10.37,2013-02-23 22:38:00,
2013-02-23 17:44:00,35.1,35.1,29.95,ESE,123,9.2,9.2,100,0.03,OVC,,0.12,WeatherDisplay:10.37,2013-02-23 22:44:00,
2013-02-23 17:49:00,34.9,34.9,29.95,SE,145,6.9,6.9,100,0.02,OVC,,0.12,WeatherDisplay:10.37,2013-02-23 22:49:00,
2013-02-23 17:54:00,35.0,35.0,29.95,SE,128,9.2,9.2,100,0.02,OVC,,0.12,WeatherDisplay:10.37,2013-02-23 22:54:00,
2013-02-23 17:59:00,34.9,34.9,29.95,East,92,0.0,0.0,100,0.02,OVC,,0.12,WeatherDisplay:10.37,2013-02-23 22:59:00,
2013-02-23 18:04:00,34.9,34.9,29.95,SSE,148,7.3,7.3,100,0.01,OVC,,0.12,WeatherDisplay:10.37,2013-02-23 23:04:00,
2013-02-23 18:09:00,34.8,34.8,29.95,SSE,148,5.8,5.8,100,0.01,OVC,,0.12,WeatherDisplay:10.37,2013-02-23 23:09:00,
2013-02-23 18:14:00,34.8,34.8,29.94,SSE,148,10.4,10.4,100,0.01,OVC,,0.12,WeatherDisplay:10.37,2013-02-23 23:14:00,
2013-02-23 18:19:00,34.8,34.8,29.94,ESE,112,1.1,1.1,100,0.00,OVC,,0.12,WeatherDisplay:10.37,2013-02-23 23:19:00,
2013-02-23 18:24:00,34.8,34.8,29.94,ESE,112,0.0,0.0,100,0.00,OVC,,0.12,WeatherDisplay:10.37,2013-02-23 23:24:00,
2013-02-23 18:29:00,34.7,34.7,29.94,ESE,112,0.0,0.0,100,0.00,OVC,,0.12,WeatherDisplay:10.37,2013-02-23 23:29:00,
2013-02-23 18:34:00,34.8,34.8,29.95,SSE,161,11.5,11.5,100,0.00,OVC,,0.12,WeatherDisplay:10.37,2013-02-23 23:34:00,
2013-02-23 18:39:00,34.7,34.7,29.94,SSE,151,6.9,6.9,100,0.00,OVC,,0.12,WeatherDisplay:10.37,2013-02-23 23:39:00,
2013-02-23 18:44:00,34.7,34.7,29.94,SE,126,3.5,0.0,100,0.00,OVC,,0.12,WeatherDisplay:10.37,2013-02-23 23:44:00,
2013-02-23 18:49:00,34.7,34.7,29.94,SE,126,0.0,0.0,100,0.00,OVC,,0.12,WeatherDisplay:10.37,2013-02-23 23:49:00,
2013-02-23 18:54:00,34.7,34.7,29.93,SSE,150,7.1,7.1,100,0.00,OVC,,0.12,WeatherDisplay:10.37,2013-02-23 23:54:00,
2013-02-23 18:59:00,34.5,34.5,29.94,ESE,106,5.8,5.8,100,0.00,OVC,,0.12,WeatherDisplay:10.37,2013-02-23 23:59:00,
2013-02-23 19:04:00,34.6,34.6,29.94,SE,141,6.9,6.9,100,0.00,OVC,,0.12,WeatherDisplay:10.37,2013-02-24 00:04:00,
2013-02-23 19:09:00,34.8,34.8,29.94,East,95,0.0,0.0,100,0.00,OVC,,0.12,WeatherDisplay:10.37,2013-02-24 00:09:00,
2013-02-23 19:14:00,34.7,34.7,29.94,ESE,106,5.8,5.8,100,0.00,OVC,,0.12,WeatherDisplay:10.37,2013-02-24 00:14:00,
2013-02-23 19:19:00,34.6,34.6,29.94,ESE,121,6.5,6.5,100,0.00,OVC,,0.12,WeatherDisplay:10.37,2013-02-24 00:19:00,
2013-02-23 19:24:00,34.6,34.6,29.93,SSE,148,4.6,4.6,100,0.00,OVC,,0.12,WeatherDisplay:10.37,2013-02-24 00:24:00,
2013-02-23 19:29:00,34.5,34.5,29.93,ESE,119,10.4,10.4,100,0.00,OVC,,0.12,WeatherDisplay:10.37,2013-02-24 00:29:00,
2013-02-23 19:34:00,34.5,34.5,29.92,ESE,117,7.6,7.6,100,0.00,OVC,,0.12,WeatherDisplay:10.37,2013-02-24 00:34:00,
2013-02-23 19:39:00,34.4,34.4,29.92,ESE,113,8.1,8.1,100,0.00,OVC,,0.12,WeatherDisplay:10.37,2013-02-24 00:39:00,
2013-02-23 19:44:00,34.5,34.5,29.92,ESE,121,5.8,5.8,100,0.00,OVC,,0.12,WeatherDisplay:10.37,2013-02-24 00:44:00,
2013-02-23 19:49:00,34.6,34.6,29.92,ESE,112,5.8,5.8,100,0.00,OVC,,0.12,WeatherDisplay:10.37,2013-02-24 00:49:00,
2013-02-23 19:54:00,34.5,34.5,29.92,ESE,113,9.2,9.2,100,0.00,OVC,,0.12,WeatherDisplay:10.37,2013-02-24 00:54:00,
2013-02-23 19:59:00,34.5,34.5,29.92,East,97,7.1,7.1,100,0.00,OVC,,0.12,WeatherDisplay:10.37,2013-02-24 00:59:00,
2013-02-23 20:04:00,34.2,34.2,29.92,East,97,11.5,11.5,100,0.00,OVC,,0.12,WeatherDisplay:10.37,2013-02-24 01:04:00,
2013-02-23 20:09:00,34.4,34.4,29.92,SE,136,0.0,0.0,100,0.00,OVC,,0.12,WeatherDisplay:10.37,2013-02-24 01:09:00,
2013-02-23 20:14:00,34.3,34.3,29.92,SE,133,10.4,10.4,100,0.00,OVC,,0.12,WeatherDisplay:10.37,2013-02-24 01:14:00,
2013-02-23 20:19:00,34.3,34.3,29.91,SE,126,5.8,5.8,100,0.00,OVC,,0.12,WeatherDisplay:10.37,2013-02-24 01:19:00,
2013-02-23 20:24:00,34.3,34.3,29.91,SE,130,6.9,6.9,100,0.00,OVC,,0.12,WeatherDisplay:10.37,2013-02-24 01:24:00,
2013-02-23 20:30:00,34.2,34.2,29.91,East,90,10.4,10.4,100,0.00,OVC,,0.12,WeatherDisplay:10.37,2013-02-24 01:30:00,
2013-02-23 20:35:00,34.3,34.3,29.91,SE,126,6.9,6.9,100,0.00,OVC,,0.12,WeatherDisplay:10.37,2013-02-24 01:35:00,
2013-02-23 20:40:00,34.3,34.3,29.91,ESE,106,6.9,6.9,100,0.00,OVC,,0.12,WeatherDisplay:10.37,2013-02-24 01:40:00,
2013-02-23 20:45:00,34.2,34.2,29.91,ESE,119,6.9,6.9,100,0.00,OVC,,0.12,WeatherDisplay:10.37,2013-02-24 01:45:00,
2013-02-23 20:50:00,34.3,34.3,29.91,SE,126,3.5,3.5,100,0.00,OVC,,0.12,WeatherDisplay:10.37,2013-02-24 01:50:00,
2013-02-23 20:55:00,34.3,34.3,29.91,SE,126,0.0,0.0,100,0.00,OVC,,0.12,WeatherDisplay:10.37,2013-02-24 01:55:00,
2013-02-23 21:00:00,34.2,34.2,29.91,SE,126,0.0,0.0,100,0.00,OVC,,0.12,WeatherDisplay:10.37,2013-02-24 02:00:00,
2013-02-23 21:05:00,34.1,34.1,29.90,SE,126,0.0,0.0,100,0.00,OVC,,0.12,WeatherDisplay:10.37,2013-02-24 02:05:00,
2013-02-23 21:10:00,34.1,34.1,29.90,SE,126,0.0,0.0,100,0.00,OVC,,0.12,WeatherDisplay:10.37,2013-02-24 02:10:00,
2013-02-23 21:15:00,34.1,34.1,29.90,SE,126,0.0,0.0,100,0.00,OVC,,0.12,WeatherDisplay:10.37,2013-02-24 02:15:00,
2013-02-23 21:20:00,34.3,34.3,29.89,SE,126,0.0,0.0,100,0.00,OVC,,0.12,WeatherDisplay:10.37,2013-02-24 02:20:00,
2013-02-23 21:25:00,34.1,34.1,29.89,SE,126,0.0,0.0,100,0.00,OVC,,0.12,WeatherDisplay:10.37,2013-02-24 02:25:00,
2013-02-23 21:30:00,34.2,34.2,29.89,SE,126,0.0,0.0,100,0.00,OVC,,0.12,WeatherDisplay:10.37,2013-02-24 02:30:00,
2013-02-23 21:35:00,34.2,34.2,29.89,SE,126,0.0,0.0,100,0.00,OVC,,0.12,WeatherDisplay:10.37,2013-02-24 02:35:00,
2013-02-23 21:40:00,34.2,34.2,29.89,SE,126,0.0,0.0,100,0.00,OVC,,0.12,WeatherDisplay:10.37,2013-02-24 02:40:00,
2013-02-23 21:45:00,34.0,34.0,29.88,SE,126,0.0,0.0,100,0.00,OVC,,0.12,WeatherDisplay:10.37,2013-02-24 02:45:00,
2013-02-23 21:50:00,34.0,34.0,29.88,SE,126,0.0,0.0,100,0.00,OVC,,0.12,WeatherDisplay:10.37,2013-02-24 02:50:00,
2013-02-23 21:55:00,34.0,34.0,29.88,SE,126,0.0,0.0,100,0.00,OVC,,0.12,WeatherDisplay:10.37,2013-02-24 02:55:00,
2013-02-23 22:00:00,33.9,33.9,29.88,SE,126,0.0,0.0,100,0.00,OVC,,0.12,WeatherDisplay:10.37,2013-02-24 03:00:00,
2013-02-23 22:05:00,33.9,33.9,29.88,SE,126,0.0,0.0,100,0.00,OVC,,0.12,WeatherDisplay:10.37,2013-02-24 03:05:00,
2013-02-23 22:10:00,33.9,33.9,29.87,SE,126,0.0,0.0,100,0.01,RA,,0.13,WeatherDisplay:10.37,2013-02-24 03:10:00,
2013-02-23 22:15:00,34.0,34.0,29.87,SE,126,0.0,0.0,100,0.01,RA,,0.13,WeatherDisplay:10.37,2013-02-24 03:15:00,
2013-02-23 22:20:00,33.8,33.8,29.87,SE,126,0.0,0.0,100,0.01,OVC,,0.13,WeatherDisplay:10.37,2013-02-24 03:20:00,
2013-02-23 22:25:00,33.8,33.8,29.86,SE,126,0.0,0.0,100,0.01,OVC,,0.13,WeatherDisplay:10.37,2013-02-24 03:25:00,
2013-02-23 22:30:00,33.8,33.8,29.86,SE,126,0.0,0.0,100,0.01,OVC,,0.13,WeatherDisplay:10.37,2013-02-24 03:30:00,
2013-02-23 22:35:00,33.6,33.6,29.86,SE,126,0.0,0.0,100,0.01,OVC,,0.13,WeatherDisplay:10.37,2013-02-24 03:35:00,
2013-02-23 22:40:00,33.7,33.7,29.85,East,80,5.8,5.8,100,0.01,OVC,,0.13,WeatherDisplay:10.37,2013-02-24 03:40:00,
2013-02-23 22:45:00,33.6,33.6,29.85,ENE,69,2.3,2.3,100,0.01,OVC,,0.13,WeatherDisplay:10.37,2013-02-24 03:45:00,
2013-02-23 22:50:00,33.8,33.8,29.85,ESE,106,0.0,0.0,100,0.01,OVC,,0.13,WeatherDisplay:10.37,2013-02-24 03:50:00,
2013-02-23 22:55:00,33.7,33.7,29.84,East,95,2.3,2.3,100,0.01,OVC,,0.13,WeatherDisplay:10.37,2013-02-24 03:55:00,
2013-02-23 23:00:00,33.7,33.7,29.84,ENE,73,1.1,0.0,100,0.01,OVC,,0.13,WeatherDisplay:10.37,2013-02-24 04:00:00,
2013-02-23 23:05:00,33.6,33.6,29.84,ENE,73,0.0,0.0,100,0.01,OVC,,0.13,WeatherDisplay:10.37,2013-02-24 04:05:00,
2013-02-23 23:10:00,33.6,33.6,29.84,ENE,73,0.0,0.0,100,0.00,OVC,,0.13,WeatherDisplay:10.37,2013-02-24 04:10:00,
2013-02-23 23:15:00,33.7,33.7,29.84,NNE,21,5.8,5.8,100,0.00,OVC,,0.13,WeatherDisplay:10.37,2013-02-24 04:15:00,
2013-02-23 23:20:00,33.8,33.8,29.84,ENE,76,0.0,0.0,100,0.00,OVC,,0.13,WeatherDisplay:10.37,2013-02-24 04:20:00,
2013-02-23 23:25:00,33.7,33.7,29.83,NE,49,0.0,0.0,100,0.00,OVC,,0.13,WeatherDisplay:10.37,2013-02-24 04:25:00,
2013-02-23 23:30:00,33.8,33.8,29.83,ENE,65,0.0,0.0,100,0.00,OVC,,0.13,WeatherDisplay:10.37,2013-02-24 04:30:00,
2013-02-23 23:35:00,33.7,33.7,29.83,ENE,65,2.7,2.7,100,0.00,OVC,,0.13,WeatherDisplay:10.37,2013-02-24 04:35:00,
2013-02-23 23:40:00,33.9,33.9,29.83,NE,40,2.3,2.3,100,0.00,OVC,,0.13,WeatherDisplay:10.37,2013-02-24 04:40:00,
2013-02-23 23:45:00,33.8,33.8,29.83,ENE,75,3.5,3.5,100,0.00,OVC,,0.13,WeatherDisplay:10.37,2013-02-24 04:45:00,
2013-02-23 23:50:00,33.8,33.8,29.83,ENE,66,0.0,0.0,100,0.00,OVC,,0.13,WeatherDisplay:10.37,2013-02-24 04:50:00,
2013-02-23 23:55:00,33.8,33.8,29.82,ENE,66,0.0,0.0,100,0.00,OVC,,0.13,WeatherDisplay:10.37,2013-02-24 04:55:00,